Santa Ines, Brazil
Current Conditions -  °F | °C
As of 5:00 PM on Saturday 25 Oct 2014 (Local Time) from SBDN Reporting Station
Scattered Clouds Scattered Clouds  
Wind Chill: 73°   Ceiling: Unl
Heat Index: 73°   Visibility: 6mi
Dew Point: 64°   Wind: 12mph
Humidity: 73%   Direction: 20°NNE
Pressure: 29.91"   Gusts: NA
Location:  22.64°S, 51.9°W
Report Text: SBDN 251900Z 02010KT 340V060 9999 SCT012 23/18 Q1013
Loading
Personal Weather Stations






























Interactive Weather Map
Tropical Storm Tracking
New forecast layout! Learn more

10-Day Weather Forecast

Advertisements
Track Severe Weather on mobile